Time;durP1;ratioP1;P1;durP2;ratioP2;P2;SDS_P1;SDS_P2;PMS_P1;PMS_P2;Temp;Humidity;BMP_temperature;BMP_pressure;BME280_temperature;BME280_humidity;BME280_pressure;Samples;Min_cycle;Max_cycle;Signal;HPM_P1;HPM_P2
2022/09/13 00:01:56;;;;;;;7.20;5.60;;;;;;;6.84;76.09;99688.14;215915;1276;140947;-64
2022/09/13 00:06:59;;;;;;;6.60;5.90;;;;;;;6.89;76.65;99690.23;213726;1276;141368;-63
2022/09/13 00:12:01;;;;;;;6.70;5.50;;;;;;;6.92;76.35;99688.96;214434;1275;142279;-63
2022/09/13 00:17:05;;;;;;;9.30;5.70;;;;;;;6.88;75.89;99688.98;213904;1276;141115;-64
2022/09/13 00:22:09;;;;;;;10.30;5.80;;;;;;;6.85;76.23;99693.39;215949;1276;140926;-64
2022/09/13 00:27:12;;;;;;;5.70;4.10;;;;;;;6.82;76.29;99688.48;215975;1276;141871;-65
2022/09/13 00:32:15;;;;;;;5.90;5.20;;;;;;;6.74;76.00;99689.24;213323;1276;140130;-64
2022/09/13 00:37:18;;;;;;;5.30;4.10;;;;;;;6.60;76.02;99688.98;213774;1276;141507;-64
2022/09/13 00:42:28;;;;;;;5.50;4.70;;;;;;;6.51;76.16;99686.77;215125;1275;140484;-64
2022/09/13 00:47:37;;;;;;;8.50;5.60;;;;;;;6.47;76.38;99683.40;214349;1276;141903;-64
2022/09/13 00:52:42;;;;;;;6.60;6.00;;;;;;;6.45;76.29;99675.34;214393;1276;140308;-65
2022/09/13 00:57:49;;;;;;;4.20;3.80;;;;;;;6.40;76.67;99673.30;214143;1275;139722;-65
2022/09/13 01:02:58;;;;;;;5.50;4.80;;;;;;;6.43;76.88;99666.21;214430;1276;141181;-65
2022/09/13 01:08:02;;;;;;;11.30;6.00;;;;;;;6.42;76.80;99665.29;213503;1276;140924;-65
2022/09/13 01:13:28;;;;;;;8.60;5.80;;;;;;;6.44;77.14;99660.43;213379;1276;141671;-64
2022/09/13 01:18:30;;;;;;;6.60;5.60;;;;;;;6.36;77.08;99656.57;213616;1276;141382;-64
2022/09/13 01:23:51;;;;;;;10.60;5.20;;;;;;;6.33;77.12;99655.64;213166;1276;141271;-63
2022/09/13 01:29:16;;;;;;;7.20;5.00;;;;;;;6.33;76.87;99647.05;214600;1276;139963;-64
2022/09/13 01:34:40;;;;;;;16.60;5.80;;;;;;;6.22;76.86;99646.34;213994;1276;139859;-64
2022/09/13 01:39:50;;;;;;;7.70;4.50;;;;;;;6.17;77.32;99644.23;214187;1276;140185;-65
2022/09/13 01:45:06;;;;;;;9.00;5.30;;;;;;;6.12;76.96;99649.30;214402;1276;140199;-65
2022/09/13 01:50:19;;;;;;;6.30;5.70;;;;;;;6.08;77.18;99646.52;214226;1276;139901;-64
2022/09/13 01:55:34;;;;;;;6.00;5.50;;;;;;;6.05;77.00;99640.58;213366;1276;140206;-64
2022/09/13 02:00:47;;;;;;;7.30;5.50;;;;;;;5.98;77.07;99634.45;214991;1274;140055;-64
2022/09/13 02:06:02;;;;;;;5.60;4.70;;;;;;;5.90;77.29;99627.96;214469;1276;139609;-65
2022/09/13 02:11:13;;;;;;;7.80;5.20;;;;;;;5.85;77.69;99624.42;216121;1275;140452;-65
2022/09/13 02:16:39;;;;;;;6.50;5.00;;;;;;;5.92;77.82;99623.30;214425;1276;140471;-64
2022/09/13 02:21:47;;;;;;;7.00;5.10;;;;;;;6.00;77.74;99622.15;215980;1276;141094;-64
2022/09/13 02:26:52;;;;;;;5.90;5.00;;;;;;;6.03;77.53;99617.63;213919;1273;140099;-65
2022/09/13 02:32:09;;;;;;;6.80;6.10;;;;;;;6.00;77.40;99611.68;214719;1276;139612;-66
2022/09/13 02:37:13;;;;;;;11.10;5.00;;;;;;;5.94;77.14;99606.11;215311;1276;139548;-64
2022/09/13 02:42:22;;;;;;;7.90;6.70;;;;;;;5.83;77.13;99599.48;214078;1276;140563;-64
2022/09/13 02:47:35;;;;;;;6.60;5.50;;;;;;;5.82;77.49;99594.80;214973;1276;139636;-64
2022/09/13 02:52:56;;;;;;;8.70;6.20;;;;;;;5.86;77.69;99591.66;214725;1276;139771;-64
2022/09/13 02:58:29;;;;;;;7.30;6.60;;;;;;;5.88;77.69;99589.05;214532;1276;141268;-65
2022/09/13 03:03:31;;;;;;;7.70;6.90;;;;;;;5.86;77.62;99581.89;213398;1276;141222;-64
2022/09/13 03:08:35;;;;;;;6.40;4.70;;;;;;;5.78;77.48;99576.77;213490;1276;140018;-64
2022/09/13 03:14:14;;;;;;;6.20;5.50;;;;;;;5.68;77.76;99575.67;214293;1276;143643;-66
2022/09/13 03:19:57;;;;;;;9.00;5.00;;;;;;;5.60;77.82;99574.17;213170;1276;142749;-66
2022/09/13 03:25:58;;;;;;;6.40;5.60;;;;;;;5.53;77.96;99574.64;213628;1276;140508;-66
2022/09/13 03:31:29;;;;;;;11.80;7.00;;;;;;;5.57;78.49;99582.68;212595;1276;146031;-66
2022/09/13 03:37:07;;;;;;;7.60;6.60;;;;;;;5.67;78.77;99575.52;213883;1276;140470;-66
2022/09/13 03:42:42;;;;;;;8.60;6.30;;;;;;;5.66;78.71;99576.89;214402;1276;139485;-64
2022/09/13 03:47:47;;;;;;;7.00;6.30;;;;;;;5.64;78.52;99569.21;214571;1276;140572;-65
2022/09/13 03:53:00;;;;;;;8.90;6.30;;;;;;;5.58;78.28;99566.05;213536;1276;139554;-66
2022/09/13 03:58:03;;;;;;;8.00;6.20;;;;;;;5.56;78.57;99559.33;215065;1276;140232;-65
2022/09/13 04:03:06;;;;;;;7.40;6.50;;;;;;;5.60;78.32;99557.41;216035;1276;140222;-65
2022/09/13 04:08:09;;;;;;;7.60;6.80;;;;;;;5.60;78.47;99559.49;213370;1276;140785;-64
2022/09/13 04:13:12;;;;;;;7.80;7.00;;;;;;;5.65;78.78;99560.34;215055;1276;140957;-68
2022/09/13 04:18:14;;;;;;;10.10;8.00;;;;;;;5.75;78.82;99554.95;215789;1276;139454;-68
2022/09/13 04:23:16;;;;;;;11.70;9.70;;;;;;;5.88;79.03;99548.39;214823;1276;141094;-67
2022/09/13 04:28:20;;;;;;;18.30;11.80;;;;;;;6.07;79.56;99538.96;214943;1277;140555;-65
2022/09/13 04:33:22;;;;;;;14.20;10.60;;;;;;;6.27;79.94;99533.39;214315;1276;140023;-65
2022/09/13 04:38:25;;;;;;;14.40;10.90;;;;;;;6.43;80.13;99528.54;215170;1276;140577;-63
2022/09/13 04:43:27;;;;;;;14.80;11.90;;;;;;;6.56;79.99;99525.74;214493;1276;141065;-63
2022/09/13 04:48:29;;;;;;;16.70;12.80;;;;;;;6.72;79.98;99523.31;215277;1276;139925;-64
2022/09/13 04:53:32;;;;;;;16.50;13.40;;;;;;;6.93;80.20;99523.89;214091;1276;140305;-60
2022/09/13 04:58:35;;;;;;;13.50;10.50;;;;;;;7.13;80.68;99528.28;214793;1276;140336;-65
2022/09/13 05:03:37;;;;;;;24.40;12.00;;;;;;;7.29;80.61;99523.38;214795;1276;139925;-65
2022/09/13 05:08:40;;;;;;;12.40;11.10;;;;;;;7.41;80.19;99524.50;213340;1276;141173;-64
2022/09/13 05:13:43;;;;;;;14.90;11.60;;;;;;;7.54;80.47;99516.83;213750;1277;143389;-65
2022/09/13 05:18:45;;;;;;;14.30;12.90;;;;;;;7.67;80.44;99511.53;214097;1276;142609;-65
2022/09/13 05:23:52;;;;;;;15.20;13.40;;;;;;;7.81;80.78;99513.46;213431;1276;141464;-67
2022/09/13 05:28:58;;;;;;;22.20;15.40;;;;;;;7.99;81.29;99513.01;213487;1275;141189;-65
2022/09/13 05:34:13;;;;;;;20.40;16.70;;;;;;;8.20;81.66;99509.61;214156;1276;141800;-65
2022/09/13 05:39:21;;;;;;;19.50;16.60;;;;;;;8.45;81.93;99511.73;213283;1276;140878;-65
2022/09/13 05:44:44;;;;;;;18.70;15.30;;;;;;;8.76;82.08;99515.61;213517;1276;141015;-67
2022/09/13 05:49:47;;;;;;;19.70;16.50;;;;;;;9.06;82.25;99522.12;214150;1276;141259;-67
2022/09/13 05:55:10;;;;;;;21.20;15.40;;;;;;;9.39;82.59;99522.94;213221;1276;142030;-66
2022/09/13 06:00:13;;;;;;;19.90;14.90;;;;;;;9.75;83.02;99521.70;215803;1276;141186;-68
2022/09/13 06:05:16;;;;;;;20.50;15.70;;;;;;;10.09;83.18;99519.05;216193;1275;140327;-66
2022/09/13 06:10:19;;;;;;;20.30;15.80;;;;;;;10.44;83.32;99511.20;215967;1276;140159;-67
2022/09/13 06:15:21;;;;;;;20.80;16.50;;;;;;;10.82;83.51;99509.25;215755;1276;159241;-68
2022/09/13 06:20:24;;;;;;;15.30;12.90;;;;;;;11.22;83.53;99498.45;215843;1276;143316;-68
2022/09/13 06:25:25;;;;;;;20.00;13.10;;;;;;;11.62;83.66;99499.23;215831;1276;141945;-70
2022/09/13 06:30:27;;;;;;;17.90;14.10;;;;;;;12.06;83.82;99491.04;213781;1276;141145;-67
2022/09/13 06:35:29;;;;;;;16.40;13.30;;;;;;;12.42;83.39;99483.50;214423;1276;140253;-68
2022/09/13 06:40:32;;;;;;;17.70;12.80;;;;;;;12.78;83.33;99489.86;214323;1276;162134;-67
2022/09/13 06:45:36;;;;;;;17.20;13.90;;;;;;;13.13;82.97;99484.10;214581;1276;143111;-68
2022/09/13 06:50:38;;;;;;;16.60;13.30;;;;;;;13.46;82.96;99482.08;214486;1276;161585;-70
2022/09/13 06:55:41;;;;;;;12.40;11.20;;;;;;;13.84;82.71;99475.28;213250;1276;141057;-67
2022/09/13 07:00:44;;;;;;;13.80;12.50;;;;;;;14.22;82.13;99477.45;213988;1276;140376;-68
2022/09/13 07:05:46;;;;;;;15.60;14.00;;;;;;;14.62;81.82;99480.91;213052;1276;141482;-70
2022/09/13 07:10:49;;;;;;;13.00;11.70;;;;;;;15.13;81.53;99476.29;213885;1276;140534;-70
2022/09/13 07:15:51;;;;;;;13.20;10.90;;;;;;;15.68;80.77;99477.49;213138;1276;141113;-67
2022/09/13 07:21:02;;;;;;;12.10;10.90;;;;;;;16.69;80.29;99471.73;213784;1276;141205;-70
2022/09/13 07:26:06;;;;;;;12.20;10.40;;;;;;;17.42;78.48;99471.90;213297;1276;140401;-72
2022/09/13 07:31:15;;;;;;;8.60;7.80;;;;;;;17.62;77.69;99468.13;214020;1276;140869;-70
2022/09/13 07:36:17;;;;;;;10.40;9.50;;;;;;;17.98;76.86;99464.15;213815;1276;140140;-69
2022/09/13 07:41:21;;;;;;;8.00;6.90;;;;;;;18.05;75.94;99462.91;213112;1276;142617;-68
2022/09/13 07:46:31;;;;;;;9.00;8.20;;;;;;;17.95;74.64;99464.13;214306;1276;140053;-69
2022/09/13 07:51:36;;;;;;;8.00;7.30;;;;;;;17.89;73.99;99457.03;214814;1276;139654;-66
2022/09/13 07:56:40;;;;;;;8.60;7.50;;;;;;;17.90;73.83;99457.02;214813;1276;139222;-67
2022/09/13 08:01:46;;;;;;;8.20;7.10;;;;;;;18.23;74.14;99464.66;215761;1277;140521;-67
2022/09/13 08:06:49;;;;;;;7.00;6.20;;;;;;;18.70;73.63;99463.33;215722;1277;140110;-74
2022/09/13 08:11:52;;;;;;;9.20;7.90;;;;;;;18.93;72.90;99464.73;215969;1276;141083;-69
2022/09/13 08:16:55;;;;;;;8.10;7.10;;;;;;;19.19;72.09;99466.55;215432;1277;140588;-71
2022/09/13 08:21:58;;;;;;;9.00;6.30;;;;;;;19.27;71.26;99468.62;215624;1277;140277;-69
2022/09/13 08:27:01;;;;;;;4.50;4.20;;;;;;;19.50;70.88;99464.70;215295;1276;140837;-69
2022/09/13 08:32:03;;;;;;;5.20;4.70;;;;;;;19.74;70.28;99448.80;215431;1276;140850;-68
2022/09/13 08:37:06;;;;;;;7.20;6.20;;;;;;;19.92;69.42;99439.73;214312;1277;141527;-74
2022/09/13 08:42:27;;;;;;;5.80;5.30;;;;;;;19.91;68.78;99436.77;214628;1276;141436;-66
2022/09/13 08:47:40;;;;;;;4.80;4.40;;;;;;;19.85;68.11;99436.84;214483;1276;140853;-68
2022/09/13 08:53:04;;;;;;;7.50;6.50;;;;;;;19.68;67.60;99430.81;212934;1277;141042;-68
2022/09/13 08:58:13;;;;;;;5.20;4.80;;;;;;;19.44;67.37;99428.36;213699;1276;141073;-69
2022/09/13 09:03:31;;;;;;;6.40;5.80;;;;;;;19.39;67.59;99428.01;213403;1277;140334;-68
2022/09/13 09:08:46;;;;;;;6.00;5.40;;;;;;;19.47;67.86;99428.94;213163;1276;141747;-67
2022/09/13 09:14:17;;;;;;;5.50;5.00;;;;;;;19.62;67.71;99424.23;213108;1277;141859;-67
2022/09/13 09:19:45;;;;;;;6.80;6.10;;;;;;;19.90;67.83;99422.98;213759;1277;140098;-67
2022/09/13 09:24:53;;;;;;;5.50;5.10;;;;;;;20.29;67.11;99415.55;214021;1276;140174;-66
2022/09/13 09:29:58;;;;;;;5.70;5.20;;;;;;;20.53;66.49;99408.20;213226;1277;139997;-67
2022/09/13 09:35:19;;;;;;;5.90;5.20;;;;;;;20.79;65.66;99399.46;213625;1277;139852;-67
2022/09/13 09:40:22;;;;;;;5.00;4.60;;;;;;;20.68;64.99;99398.95;213205;1276;139333;-67
2022/09/13 09:45:34;;;;;;;6.50;4.50;;;;;;;20.78;65.20;99393.38;213664;1276;139799;-67
2022/09/13 09:50:43;;;;;;;5.70;5.20;;;;;;;21.03;64.87;99384.17;213916;1276;142627;-66
2022/09/13 09:55:59;;;;;;;5.10;3.30;;;;;;;21.26;64.23;99380.35;211056;1277;2514955;-66
2022/09/13 10:01:04;;;;;;;5.40;3.60;;;;;;;21.39;63.45;99375.70;214470;1276;140478;-66
2022/09/13 10:06:23;;;;;;;6.30;3.50;;;;;;;21.18;62.66;99372.11;214558;1276;139944;-67
2022/09/13 10:11:49;;;;;;;3.70;3.30;;;;;;;21.09;62.51;99360.69;215911;1276;139746;-67
2022/09/13 10:17:22;;;;;;;6.50;4.20;;;;;;;21.18;62.60;99357.50;214464;1276;140135;-67
2022/09/13 10:22:28;;;;;;;3.00;2.80;;;;;;;21.29;62.52;99349.49;215647;1276;140377;-68
2022/09/13 10:27:42;;;;;;;2.90;2.70;;;;;;;21.31;61.90;99344.28;215046;1275;139533;-66
2022/09/13 10:32:54;;;;;;;3.40;3.20;;;;;;;21.30;61.10;99336.02;214633;1276;140229;-66
2022/09/13 10:37:57;;;;;;;3.80;3.50;;;;;;;21.31;60.55;99327.25;214560;1275;139722;-66
2022/09/13 10:43:03;;;;;;;2.70;2.50;;;;;;;21.62;61.01;99316.27;213602;1276;139486;-66
2022/09/13 10:48:14;;;;;;;6.10;3.00;;;;;;;22.04;60.18;99305.23;214446;1276;139746;-67
2022/09/13 10:53:47;;;;;;;4.60;4.20;;;;;;;22.07;59.41;99296.45;213529;1276;140294;-66
2022/09/13 10:59:11;;;;;;;3.90;3.60;;;;;;;22.17;59.23;99292.64;213098;1276;139591;-66
2022/09/13 11:04:55;;;;;;;3.90;3.60;;;;;;;21.95;58.60;99291.09;213980;1276;139334;-66
2022/09/13 11:10:20;;;;;;;4.30;3.80;;;;;;;21.95;58.68;99281.89;213520;1276;139356;-66
2022/09/13 11:16:07;;;;;;;4.00;2.90;;;;;;;21.73;57.93;99281.18;213531;1276;139805;-66
2022/09/13 11:21:56;;;;;;;3.90;3.60;;;;;;;21.44;57.80;99276.23;213306;1276;140160;-67
2022/09/13 11:27:00;;;;;;;4.10;3.20;;;;;;;21.37;58.44;99269.02;213983;1276;139598;-68
2022/09/13 11:32:26;;;;;;;3.30;2.70;;;;;;;21.38;58.63;99262.50;213278;1276;140891;-67
2022/09/13 11:37:49;;;;;;;3.40;3.20;;;;;;;21.42;58.49;99256.69;214773;1276;145019;-66
2022/09/13 11:43:42;;;;;;;3.60;3.30;;;;;;;21.63;58.63;99237.44;215154;1276;140864;-67
2022/09/13 11:49:20;;;;;;;3.10;2.90;;;;;;;21.46;58.16;99239.29;213675;1276;140300;-67
2022/09/13 11:54:51;;;;;;;3.20;2.70;;;;;;;21.40;58.30;99219.60;213587;1276;140456;-66
2022/09/13 11:59:58;;;;;;;3.00;2.80;;;;;;;21.58;58.41;99212.33;213478;1276;139695;-67
2022/09/13 12:05:07;;;;;;;10.70;3.70;;;;;;;21.47;57.85;99211.21;213167;1276;139735;-66
2022/09/13 12:10:28;;;;;;;3.20;2.90;;;;;;;21.17;57.75;99198.84;215780;1277;140394;-67
2022/09/13 12:15:36;;;;;;;3.20;3.00;;;;;;;21.04;57.96;99194.98;215884;1275;140658;-67
2022/09/13 12:20:46;;;;;;;2.70;2.60;;;;;;;20.99;58.39;99188.00;215144;1276;139123;-67
2022/09/13 12:25:57;;;;;;;4.70;3.20;;;;;;;20.81;57.75;99189.05;215196;1276;139683;-65
2022/09/13 12:31:14;;;;;;;3.20;2.90;;;;;;;20.49;58.12;99178.60;213926;1276;140211;-66
2022/09/13 12:36:49;;;;;;;2.70;2.20;;;;;;;20.39;58.54;99167.77;213051;1276;140258;-67
2022/09/13 12:42:12;;;;;;;4.10;3.80;;;;;;;20.33;58.58;99162.86;213221;1276;139446;-67
2022/09/13 12:47:43;;;;;;;3.90;3.00;;;;;;;20.40;58.94;99164.26;213401;1276;139975;-66
2022/09/13 12:52:57;;;;;;;3.10;2.90;;;;;;;20.78;59.36;99161.19;213387;1276;141733;-66
2022/09/13 12:58:26;;;;;;;3.80;3.50;;;;;;;20.91;58.80;99161.55;213713;1276;141221;-66
2022/09/13 13:03:31;;;;;;;3.90;3.10;;;;;;;20.95;58.99;99162.42;213409;1276;138968;-68
2022/09/13 13:08:34;;;;;;;3.00;2.80;;;;;;;20.86;58.41;99162.34;213118;1276;141368;-67
2022/09/13 13:13:43;;;;;;;7.00;3.10;;;;;;;20.66;58.32;99157.15;214182;1276;139041;-67
2022/09/13 13:18:47;;;;;;;5.80;3.10;;;;;;;20.55;58.58;99146.75;213368;1276;139411;-66
2022/09/13 13:24:15;;;;;;;4.00;3.60;;;;;;;20.45;58.70;99140.46;213495;1276;140241;-66
2022/09/13 13:29:18;;;;;;;4.90;3.10;;;;;;;20.42;59.17;99135.05;212797;1277;152166;-66
2022/09/13 13:34:27;;;;;;;3.10;2.90;;;;;;;20.43;59.34;99129.00;214255;1275;139260;-66
2022/09/13 13:39:28;;;;;;;2.90;2.70;;;;;;;20.43;59.14;99120.30;213403;1275;139449;-66
2022/09/13 13:44:30;;;;;;;3.10;2.90;;;;;;;20.43;59.35;99121.23;213192;1276;140564;-67
2022/09/13 13:49:34;;;;;;;3.10;2.90;;;;;;;20.32;59.31;99115.33;214096;1276;139006;-66
2022/09/13 13:54:42;;;;;;;3.90;3.70;;;;;;;20.18;59.75;99117.70;214999;1277;139914;-67
2022/09/13 13:59:46;;;;;;;3.80;3.50;;;;;;;20.08;59.99;99109.67;212947;1276;139882;-66
2022/09/13 14:05:08;;;;;;;3.60;3.40;;;;;;;19.98;60.26;99107.05;214387;1276;139305;-67
2022/09/13 14:10:22;;;;;;;4.30;3.50;;;;;;;19.90;60.40;99099.11;215965;1276;139656;-67
2022/09/13 14:16:00;;;;;;;3.90;3.60;;;;;;;19.86;60.51;99092.30;215295;1276;139563;-66
2022/09/13 14:21:03;;;;;;;;;;;;;;;19.88;60.62;99085.27;214999;1276;219416;-67
2022/09/13 14:26:10;;;;;;;4.30;3.90;;;;;;;19.80;60.72;99078.53;215319;1275;126648;-66
2022/09/13 14:31:19;;;;;;;4.40;3.60;;;;;;;19.75;60.79;99078.79;214709;1276;141365;-66
2022/09/13 14:36:22;;;;;;;8.70;3.90;;;;;;;19.67;60.81;99073.46;215034;1276;140572;-67
2022/09/13 14:41:36;;;;;;;5.10;3.70;;;;;;;19.62;60.96;99071.81;213553;1276;140551;-68
2022/09/13 14:46:41;;;;;;;5.50;5.00;;;;;;;19.52;61.16;99064.83;213770;1276;141689;-66
2022/09/13 14:51:54;;;;;;;6.20;5.30;;;;;;;19.42;61.36;99057.39;213249;1276;140522;-66
2022/09/13 14:57:01;;;;;;;5.50;4.60;;;;;;;19.32;61.79;99056.34;213250;1276;140332;-67
2022/09/13 15:02:15;;;;;;;5.20;4.70;;;;;;;19.25;62.22;99047.61;213662;1276;141523;-68
2022/09/13 15:07:33;;;;;;;5.50;5.00;;;;;;;19.14;62.41;99044.73;213500;1276;140309;-67
2022/09/13 15:12:36;;;;;;;6.70;6.10;;;;;;;19.06;62.74;99044.00;213417;1276;140497;-67
2022/09/13 15:17:54;;;;;;;6.70;5.50;;;;;;;19.06;63.10;99042.91;214405;1276;140953;-66
2022/09/13 15:22:57;;;;;;;7.40;5.90;;;;;;;19.01;63.29;99033.11;213633;1276;141994;-66
2022/09/13 15:27:59;;;;;;;5.30;4.30;;;;;;;18.97;63.53;99031.00;213628;1276;140193;-68
2022/09/13 15:33:08;;;;;;;4.80;4.40;;;;;;;18.90;63.72;99021.29;215056;1276;139999;-67
2022/09/13 15:38:15;;;;;;;4.80;4.30;;;;;;;18.77;64.07;99013.63;214484;1277;139443;-66
2022/09/13 15:43:17;;;;;;;;;;;;;;;18.67;64.19;99012.46;212952;1276;141007;-66
2022/09/13 15:48:27;;;;;;;4.60;4.10;;;;;;;18.61;64.74;99009.71;215027;1277;126459;-66
2022/09/13 15:53:29;;;;;;;4.90;4.40;;;;;;;18.59;64.97;99009.59;213175;1276;139841;-67
2022/09/13 15:58:32;;;;;;;4.60;4.10;;;;;;;18.62;65.32;99004.89;215591;1276;139304;-67
2022/09/13 16:03:35;;;;;;;5.40;4.90;;;;;;;18.63;65.38;98997.37;215781;1276;140044;-67
2022/09/13 16:08:38;;;;;;;4.90;4.50;;;;;;;18.62;65.41;99005.27;215977;1275;141268;-67
2022/09/13 16:13:40;;;;;;;7.90;5.10;;;;;;;18.58;65.68;99002.09;215933;1275;139632;-68
2022/09/13 16:18:42;;;;;;;4.80;4.30;;;;;;;18.54;65.89;98997.16;216054;1275;140991;-67
2022/09/13 16:23:44;;;;;;;5.50;4.60;;;;;;;18.49;65.97;98989.48;215514;1275;140517;-67
2022/09/13 16:28:47;;;;;;;3.60;3.30;;;;;;;18.47;66.17;98982.23;214421;1276;141176;-66
2022/09/13 16:33:49;;;;;;;4.90;4.50;;;;;;;18.43;66.31;98977.90;213619;1276;139117;-66
2022/09/13 16:38:51;;;;;;;5.90;4.50;;;;;;;18.37;66.56;98979.23;212921;1276;140889;-66
2022/09/13 16:43:54;;;;;;;6.40;5.80;;;;;;;18.29;66.76;98977.36;214382;1276;139259;-67
2022/09/13 16:48:56;;;;;;;4.30;4.00;;;;;;;18.20;66.87;98976.44;214013;1277;140120;-66
2022/09/13 16:54:03;;;;;;;5.90;5.20;;;;;;;18.09;67.26;98971.91;214341;1276;139792;-66
2022/09/13 16:59:05;;;;;;;5.00;4.50;;;;;;;17.99;67.59;98973.23;214642;1276;141125;-67
2022/09/13 17:04:10;;;;;;;4.90;4.20;;;;;;;17.92;67.79;98971.20;213134;1276;140160;-66
2022/09/13 17:09:17;;;;;;;6.50;4.60;;;;;;;17.88;67.93;98971.39;212869;1276;139104;-66
2022/09/13 17:14:20;;;;;;;6.10;4.20;;;;;;;17.83;68.25;98968.63;213656;1276;140555;-66
2022/09/13 17:19:26;;;;;;;6.10;5.50;;;;;;;17.77;68.41;98968.91;213506;1276;142110;-66
2022/09/13 17:24:30;;;;;;;9.60;5.00;;;;;;;17.71;68.67;98972.38;212931;1276;140964;-66
2022/09/13 17:29:34;;;;;;;5.20;4.50;;;;;;;17.70;68.92;98973.73;213343;1276;140738;-67
2022/09/13 17:34:36;;;;;;;5.60;4.80;;;;;;;17.67;68.95;98971.22;213103;1276;141404;-66
2022/09/13 17:39:38;;;;;;;7.10;5.10;;;;;;;17.60;69.24;98972.46;213250;1276;139640;-66
2022/09/13 17:44:41;;;;;;;5.90;5.30;;;;;;;17.59;69.46;98971.03;214353;1276;141482;-67
2022/09/13 17:49:44;;;;;;;5.50;4.90;;;;;;;17.59;69.51;98963.36;213410;1277;142009;-67
2022/09/13 17:54:49;;;;;;;4.70;4.30;;;;;;;17.55;69.74;98962.52;213633;1276;140211;-67
2022/09/13 17:59:54;;;;;;;5.70;5.20;;;;;;;17.51;69.72;98968.36;215709;1276;140378;-67
2022/09/13 18:04:57;;;;;;;9.00;5.20;;;;;;;17.53;70.04;98964.34;215984;1276;140266;-67
2022/09/13 18:10:08;;;;;;;8.00;5.60;;;;;;;17.54;70.14;98962.88;215736;1275;141308;-67
2022/09/13 18:15:33;;;;;;;5.10;4.60;;;;;;;17.51;70.36;98963.35;215142;1276;139822;-66
2022/09/13 18:20:38;;;;;;;8.00;6.10;;;;;;;17.54;70.60;98965.77;214654;1275;140273;-67
2022/09/13 18:25:44;;;;;;;7.20;6.10;;;;;;;17.59;70.75;98963.09;215251;1276;140172;-67
2022/09/13 18:30:54;;;;;;;9.20;7.60;;;;;;;17.58;71.00;98960.96;214371;1276;140942;-67
2022/09/13 18:36:05;;;;;;;6.10;5.60;;;;;;;17.46;71.51;98969.85;213650;1276;139932;-66
2022/09/13 18:41:12;;;;;;;6.80;6.10;;;;;;;17.44;71.82;98979.64;214405;1276;140553;-67
2022/09/13 18:46:22;;;;;;;12.80;6.80;;;;;;;17.38;71.91;98980.27;213905;1275;142117;-67
2022/09/13 18:51:29;;;;;;;8.50;6.90;;;;;;;17.29;71.95;98984.35;214130;1276;141523;-66
2022/09/13 18:56:32;;;;;;;7.10;6.40;;;;;;;17.20;72.20;98985.64;213233;1276;140891;-66
2022/09/13 19:01:38;;;;;;;12.90;6.60;;;;;;;17.11;72.70;98978.16;213129;1276;141723;-66
2022/09/13 19:06:45;;;;;;;7.20;6.40;;;;;;;17.09;73.05;98982.27;213038;1276;141185;-66
2022/09/13 19:11:52;;;;;;;8.00;6.40;;;;;;;17.08;73.52;98977.67;213375;1276;141478;-66
2022/09/13 19:17:01;;;;;;;8.50;7.40;;;;;;;17.07;73.73;98973.70;213612;1275;140174;-66
2022/09/13 19:22:06;;;;;;;5.00;4.50;;;;;;;17.05;73.79;98969.48;213803;1276;143505;-68
2022/09/13 19:27:13;;;;;;;9.80;7.20;;;;;;;16.90;74.03;98971.06;214390;1276;140940;-69
2022/09/13 19:32:17;;;;;;;9.30;7.70;;;;;;;16.81;74.72;98965.52;213249;1276;140952;-66
2022/09/13 19:37:26;;;;;;;11.40;8.70;;;;;;;16.79;75.03;98962.27;214717;1276;141008;-66
2022/09/13 19:42:30;;;;;;;8.50;7.60;;;;;;;16.74;75.14;98956.27;214018;1276;141587;-66
2022/09/13 19:47:34;;;;;;;9.40;8.50;;;;;;;16.68;75.58;98953.36;213170;1275;140682;-65
2022/09/13 19:53:00;;;;;;;9.90;6.70;;;;;;;16.66;75.86;98949.71;215725;1276;140755;-68
2022/09/13 19:58:03;;;;;;;9.00;8.00;;;;;;;16.65;76.07;98946.17;213895;1276;140929;-67
2022/09/13 20:03:06;;;;;;;9.90;7.70;;;;;;;16.64;76.29;98943.39;214394;1276;142266;-68
2022/09/13 20:08:09;;;;;;;8.10;7.50;;;;;;;16.52;76.46;98936.02;215432;1276;140529;-65
2022/09/13 20:13:12;;;;;;;10.50;9.20;;;;;;;16.47;76.84;98928.26;215928;1276;151326;-67
2022/09/13 20:18:14;;;;;;;9.30;7.80;;;;;;;16.37;76.88;98924.58;215936;1276;142028;-69
2022/09/13 20:23:17;;;;;;;9.90;8.40;;;;;;;16.34;77.09;98924.52;213578;1276;141101;-67
2022/09/13 20:28:20;;;;;;;9.40;8.50;;;;;;;16.36;77.47;98913.67;214766;1276;140721;-68
2022/09/13 20:33:23;;;;;;;8.30;7.50;;;;;;;16.33;77.45;98914.20;214597;1276;140058;-67
2022/09/13 20:38:26;;;;;;;8.80;7.50;;;;;;;16.28;77.94;98913.89;213959;1276;141271;-66
2022/09/13 20:43:29;;;;;;;9.00;8.10;;;;;;;16.32;77.97;98912.17;213922;1276;143250;-66
2022/09/13 20:48:32;;;;;;;9.00;8.10;;;;;;;16.30;78.29;98910.95;213047;1276;142694;-66
2022/09/13 20:53:37;;;;;;;8.90;7.80;;;;;;;16.35;78.44;98912.67;213869;1276;141767;-66
2022/09/13 20:58:44;;;;;;;11.70;7.70;;;;;;;16.35;78.48;98915.36;213019;1276;141817;-66
2022/09/13 21:03:48;;;;;;;8.20;7.50;;;;;;;16.33;78.70;98905.11;213356;1276;142114;-68
2022/09/13 21:08:50;;;;;;;7.90;6.70;;;;;;;16.27;78.54;98896.11;213284;1276;140771;-66
2022/09/13 21:13:58;;;;;;;9.90;8.50;;;;;;;16.17;78.93;98896.00;213281;1276;140283;-66
2022/09/13 21:19:02;;;;;;;8.50;6.90;;;;;;;16.17;78.93;98899.45;213763;1276;141507;-68
2022/09/13 21:24:08;;;;;;;7.10;6.40;;;;;;;16.13;79.15;98903.85;213205;1276;141302;-65
2022/09/13 21:29:10;;;;;;;9.00;7.90;;;;;;;16.10;79.36;98904.02;213521;1276;140996;-66
2022/09/13 21:34:16;;;;;;;10.50;6.50;;;;;;;16.11;79.58;98898.66;213854;1276;141370;-67
2022/09/13 21:39:18;;;;;;;9.70;8.00;;;;;;;16.09;79.69;98898.52;213350;1276;140573;-66
2022/09/13 21:44:19;;;;;;;11.10;8.80;;;;;;;16.12;79.89;98903.23;214488;1276;141026;-66
2022/09/13 21:49:21;;;;;;;11.30;8.00;;;;;;;16.18;80.05;98902.61;214665;1276;139958;-66
2022/09/13 21:54:23;;;;;;;4.90;4.50;;;;;;;16.19;79.82;98902.02;213424;1276;1440439;-66
2022/09/13 21:59:27;;;;;;;11.00;7.50;;;;;;;16.17;79.83;98900.27;215758;1276;139777;-67
2022/09/13 22:04:31;;;;;;;11.20;8.00;;;;;;;16.18;79.84;98898.48;215548;1276;140365;-67
2022/09/13 22:09:34;;;;;;;8.70;7.90;;;;;;;16.25;79.87;98905.17;215779;1276;140553;-67
2022/09/13 22:14:36;;;;;;;7.80;7.00;;;;;;;16.32;79.83;98908.88;214423;1276;140206;-67
2022/09/13 22:19:38;;;;;;;8.40;6.90;;;;;;;16.39;79.82;98906.64;214749;1276;140882;-66
2022/09/13 22:24:40;;;;;;;8.10;7.30;;;;;;;16.41;79.72;98910.85;214650;1276;140563;-67
2022/09/13 22:29:42;;;;;;;9.60;8.60;;;;;;;16.42;79.70;98912.66;213531;1276;138995;-66
2022/09/13 22:34:45;;;;;;;10.40;9.30;;;;;;;16.40;79.80;98907.16;214126;1276;140525;-68
2022/09/13 22:39:48;;;;;;;11.00;9.70;;;;;;;16.41;79.61;98904.40;213918;1276;141117;-68
2022/09/13 22:44:50;;;;;;;10.70;9.70;;;;;;;16.33;79.37;98903.44;213567;1276;140012;-67
2022/09/13 22:49:52;;;;;;;11.80;8.40;;;;;;;16.20;79.24;98899.34;214122;1276;141113;-65
2022/09/13 22:54:54;;;;;;;10.40;9.40;;;;;;;16.14;79.39;98902.88;212881;1276;141090;-71
2022/09/13 22:59:57;;;;;;;13.60;9.10;;;;;;;16.08;79.31;98904.73;213254;1276;140311;-64
2022/09/13 23:05:00;;;;;;;8.80;7.90;;;;;;;16.02;79.43;98907.34;214306;1276;139838;-66
2022/09/13 23:10:03;;;;;;;10.60;9.40;;;;;;;15.95;79.24;98908.02;213366;1276;151370;-66
2022/09/13 23:15:06;;;;;;;10.20;9.00;;;;;;;15.86;78.89;98900.05;214156;1277;140873;-67
2022/09/13 23:20:10;;;;;;;13.50;10.40;;;;;;;15.78;78.85;98898.42;214494;1276;139749;-67
2022/09/13 23:25:13;;;;;;;11.40;9.70;;;;;;;15.65;78.69;98894.83;213303;1276;141375;-66
2022/09/13 23:30:15;;;;;;;18.00;11.00;;;;;;;15.55;78.94;98899.84;214214;1276;141913;-66
2022/09/13 23:35:18;;;;;;;10.80;9.70;;;;;;;15.47;78.84;98896.25;213449;1276;141810;-67
2022/09/13 23:40:21;;;;;;;13.80;10.80;;;;;;;15.37;78.60;98895.98;213065;1277;141855;-70